Buoy 46563

sailwx.info

Track history (hours):
 
Tides and Currents Weather Stations Pressure Air Temp Water Temp Dewpoint Dewpoint Depression Visibility Wind Speed Wind Dir Waves Ship Positions

Drifting buoy 46563

Last reported at 2015-Jul-03 21:00 UTC. Time now 2015-Jul-03 23:44 UTC.
Position N 20°44' W 136°01'.

Water temperature 23.8 ° C

Date/timePositionNaut miles runAvg speedWind from/ knotsBaromVisibWave heightAir tempDewpointWater temp
2015-Jul-03 21:00N 20°44' W 136°01'3 0.9 23.8
2015-Jul-03 18:00N 20°47' W 135°60'1 0.2 23.6
2015-Jul-03 14:00N 20°48' W 135°59'2 0.7 23.6
2015-Jul-03 11:00N 20°49' W 135°57'4 0.7 23.6
2015-Jul-03 06:00N 20°50' W 135°53'2 0.6 23.8
2015-Jul-03 03:00N 20°51' W 135°52'1 0.8 23.8
2015-Jul-03 02:00N 20°51' W 135°51'1 0.5 23.9
2015-Jul-02 23:00N 20°52' W 135°50'1 1.1 24.2
2015-Jul-02 22:00N 20°52' W 135°49'2 0.4 24.1
2015-Jul-02 17:00N 20°51' W 135°46'1 1.4 23.5
2015-Jul-02 16:00N 20°51' W 135°45'0 0.2 23.5
2015-Jul-02 15:00N 20°50' W 135°45'1 0.3 23.5
2015-Jul-02 12:00N 20°50' W 135°44'0 0.0 23.5
2015-Jul-02 11:00N 20°50' W 135°44'3 0.3 23.4
2015-Jul-02 01:00N 20°48' W 135°42'2 0.2 23.5
2015-Jul-01 15:00N 20°47' W 135°40'1 0.1 23.4
2015-Jul-01 05:00N 20°46' W 135°41'0 0.5 23.4
2015-Jul-01 04:00N 20°46' W 135°41'1 0.5 23.4
2015-Jul-01 02:00N 20°45' W 135°41'1 0.2 23.5
2015-Jun-30 22:00N 20°46' W 135°41'1 0.1 23.4
2015-Jun-30 15:00N 20°45' W 135°42'1 0.5 23.4
2015-Jun-30 14:00N 20°46' W 135°42'2 0.5 23.3
2015-Jun-30 10:00N 20°47' W 135°43'1 0.2 23.4
2015-Jun-30 06:00N 20°48' W 135°43'0 0.0 23.4
2015-Jun-30 05:00N 20°48' W 135°43'1 0.1 23.4
2015-Jun-29 23:00N 20°48' W 135°43'2 0.2 23.4
2015-Jun-29 16:00N 20°50' W 135°43'0 0.5 23.3
2015-Jun-29 15:00N 20°50' W 135°43'2 0.2 23.3
2015-Jun-29 06:00N 20°52' W 135°42'2 0.4 23.4
2015-Jun-29 01:00N 20°52' W 135°39'1 0.5 23.4
2015-Jun-28 23:00N 20°52' W 135°39'3 0.4 23.5
2015-Jun-28 15:00N 20°53' W 135°35'0 0.0 23.3
2015-Jun-28 14:00N 20°53' W 135°35'1 0.2 23.3
2015-Jun-28 11:00N 20°54' W 135°35'1 0.2 23.3
2015-Jun-28 06:00N 20°53' W 135°34'1 0.5 23.3
2015-Jun-28 03:00N 20°53' W 135°32'1 1.0 23.4
2015-Jun-28 02:00N 20°52' W 135°32'3 0.3 23.4
2015-Jun-27 17:00N 20°51' W 135°29'2 0.5 23.3
2015-Jun-27 14:00N 20°50' W 135°27'0 0.0 23.3
2015-Jun-27 13:00N 20°50' W 135°27'0 0.0 23.3
2015-Jun-27 03:00N 20°50' W 135°27'2 0.2 23.3
2015-Jun-26 14:00N 20°49' W 135°26'1 0.2 23.3
2015-Jun-26 07:00N 20°50' W 135°26'0 0.3 23.3
2015-Jun-26 06:00N 20°50' W 135°27'0 0.2 23.3
2015-Jun-26 04:00N 20°50' W 135°26'0 0.0 23.3
2015-Jun-26 03:00N 20°50' W 135°26'0 0.2 23.3
2015-Jun-26 02:00N 20°50' W 135°26'1 1.3 23.4
2015-Jun-26 01:00N 20°50' W 135°28'0 0.0 23.4
2015-Jun-25 23:00N 20°50' W 135°28'1 0.9 23.4
2015-Jun-25 22:00N 20°51' W 135°27'0 0.0 23.3
2015-Jun-25 20:00N 20°51' W 135°27'0 0.2 23.3
2015-Jun-25 18:00N 20°51' W 135°27'0 0.1 23.3
2015-Jun-25 14:00N 20°51' W 135°26'0 0.3 23.3
2015-Jun-25 13:00N 20°51' W 135°27'2 0.6 23.3
2015-Jun-25 10:00N 20°53' W 135°27'0 0.0 23.3
2015-Jun-25 07:00N 20°53' W 135°27'1 1.0 23.3
2015-Jun-25 06:00N 20°53' W 135°26'0 0.0 23.3
2015-Jun-25 05:00N 20°53' W 135°26'0 0.2 23.3
2015-Jun-25 03:00N 20°53' W 135°26'0 0.1 23.3
2015-Jun-25 02:00N 20°54' W 135°26'2 0.4 23.4
2015-Jun-24 21:00N 20°56' W 135°25'0 0.0 23.3
2015-Jun-24 19:00N 20°56' W 135°25'1 1.0 23.3
2015-Jun-24 18:00N 20°56' W 135°24'0 0.1 23.3
2015-Jun-24 14:00N 20°57' W 135°24'1 0.4 23.2
2015-Jun-24 11:00N 20°58' W 135°23'2 0.4 23.3
2015-Jun-24 05:00N 20°59' W 135°21'2 0.6 23.3
2015-Jun-24 02:00N 21°00' W 135°20'   23.4
Track history (hours):
 
Tides and Currents Weather Stations Pressure Air Temp Water Temp Dewpoint Dewpoint Depression Visibility Wind Speed Wind Dir Waves Ship Positions

Drifting buoy 46563

Last reported at 2015-Jul-03 21:00 UTC. Time now 2015-Jul-03 23:44 UTC.
Position N 20°44' W 136°01'.

Water temperature 23.8 ° C

Date/timePositionNaut miles runAvg speedWind from/ knotsBaromVisibWave heightAir tempDewpointWater temp
2015-Jul-03 21:00N 20°44' W 136°01'3 0.9 23.8
2015-Jul-03 18:00N 20°47' W 135°60'1 0.2 23.6
2015-Jul-03 14:00N 20°48' W 135°59'2 0.7 23.6
2015-Jul-03 11:00N 20°49' W 135°57'4 0.7 23.6
2015-Jul-03 06:00N 20°50' W 135°53'2 0.6 23.8
2015-Jul-03 03:00N 20°51' W 135°52'1 0.8 23.8
2015-Jul-03 02:00N 20°51' W 135°51'1 0.5 23.9
2015-Jul-02 23:00N 20°52' W 135°50'1 1.1 24.2
2015-Jul-02 22:00N 20°52' W 135°49'2 0.4 24.1
2015-Jul-02 17:00N 20°51' W 135°46'1 1.4 23.5
2015-Jul-02 16:00N 20°51' W 135°45'0 0.2 23.5
2015-Jul-02 15:00N 20°50' W 135°45'1 0.3 23.5
2015-Jul-02 12:00N 20°50' W 135°44'0 0.0 23.5
2015-Jul-02 11:00N 20°50' W 135°44'3 0.3 23.4
2015-Jul-02 01:00N 20°48' W 135°42'2 0.2 23.5
2015-Jul-01 15:00N 20°47' W 135°40'1 0.1 23.4
2015-Jul-01 05:00N 20°46' W 135°41'0 0.5 23.4
2015-Jul-01 04:00N 20°46' W 135°41'1 0.5 23.4
2015-Jul-01 02:00N 20°45' W 135°41'1 0.2 23.5
2015-Jun-30 22:00N 20°46' W 135°41'1 0.1 23.4
2015-Jun-30 15:00N 20°45' W 135°42'1 0.5 23.4
2015-Jun-30 14:00N 20°46' W 135°42'2 0.5 23.3
2015-Jun-30 10:00N 20°47' W 135°43'1 0.2 23.4
2015-Jun-30 06:00N 20°48' W 135°43'0 0.0 23.4
2015-Jun-30 05:00N 20°48' W 135°43'1 0.1 23.4
2015-Jun-29 23:00N 20°48' W 135°43'2 0.2 23.4
2015-Jun-29 16:00N 20°50' W 135°43'0 0.5 23.3
2015-Jun-29 15:00N 20°50' W 135°43'2 0.2 23.3
2015-Jun-29 06:00N 20°52' W 135°42'2 0.4 23.4
2015-Jun-29 01:00N 20°52' W 135°39'1 0.5 23.4
2015-Jun-28 23:00N 20°52' W 135°39'3 0.4 23.5
2015-Jun-28 15:00N 20°53' W 135°35'0 0.0 23.3
2015-Jun-28 14:00N 20°53' W 135°35'1 0.2 23.3
2015-Jun-28 11:00N 20°54' W 135°35'1 0.2 23.3
2015-Jun-28 06:00N 20°53' W 135°34'1 0.5 23.3
2015-Jun-28 03:00N 20°53' W 135°32'1 1.0 23.4
2015-Jun-28 02:00N 20°52' W 135°32'3 0.3 23.4
2015-Jun-27 17:00N 20°51' W 135°29'2 0.5 23.3
2015-Jun-27 14:00N 20°50' W 135°27'0 0.0 23.3
2015-Jun-27 13:00N 20°50' W 135°27'0 0.0 23.3
2015-Jun-27 03:00N 20°50' W 135°27'2 0.2 23.3
2015-Jun-26 14:00N 20°49' W 135°26'1 0.2 23.3
2015-Jun-26 07:00N 20°50' W 135°26'0 0.3 23.3
2015-Jun-26 06:00N 20°50' W 135°27'0 0.2 23.3
2015-Jun-26 04:00N 20°50' W 135°26'0 0.0 23.3
2015-Jun-26 03:00N 20°50' W 135°26'0 0.2 23.3
2015-Jun-26 02:00N 20°50' W 135°26'1 1.3 23.4
2015-Jun-26 01:00N 20°50' W 135°28'0 0.0 23.4
2015-Jun-25 23:00N 20°50' W 135°28'1 0.9 23.4
2015-Jun-25 22:00N 20°51' W 135°27'0 0.0 23.3
2015-Jun-25 20:00N 20°51' W 135°27'0 0.2 23.3
2015-Jun-25 18:00N 20°51' W 135°27'0 0.1 23.3
2015-Jun-25 14:00N 20°51' W 135°26'0 0.3 23.3
2015-Jun-25 13:00N 20°51' W 135°27'2 0.6 23.3
2015-Jun-25 10:00N 20°53' W 135°27'0 0.0 23.3
2015-Jun-25 07:00N 20°53' W 135°27'1 1.0 23.3
2015-Jun-25 06:00N 20°53' W 135°26'0 0.0 23.3
2015-Jun-25 05:00N 20°53' W 135°26'0 0.2 23.3
2015-Jun-25 03:00N 20°53' W 135°26'0 0.1 23.3
2015-Jun-25 02:00N 20°54' W 135°26'2 0.4 23.4
2015-Jun-24 21:00N 20°56' W 135°25'0 0.0 23.3
2015-Jun-24 19:00N 20°56' W 135°25'1 1.0 23.3
2015-Jun-24 18:00N 20°56' W 135°24'0 0.1 23.3
2015-Jun-24 14:00N 20°57' W 135°24'1 0.4 23.2
2015-Jun-24 11:00N 20°58' W 135°23'2 0.4 23.3
2015-Jun-24 05:00N 20°59' W 135°21'2 0.6 23.3
2015-Jun-24 02:00N 21°00' W 135°20'   23.4

Dump ship's entire track history